Flight Track Log - Related Links

Times and Time Zones

All times are in EDT time to prevent confusion due to time zone crossing. See the SWA470 flight status page for this flight to view local times or setup timezone preferences in your user account.

Time Position Orientation Groundspeed Altitude Reporting Facility
EDT Latitude Longitude Course Direction KTS MPH feet Rate Location/Type
Thu 02:05:00 PM 41.8958 -88.0236 270° West  Level Estimated
Thu 02:09:00 PM 41.7341 -88.4900 264° West  Level FlightAware Approximate
Thu 02:12:00 PM 41.8675 -88.6934 263° West  Level Estimated
Thu 02:13:00 PM 41.8222 -88.7674 231° Southwest  Level FlightAware Approximate
Thu 02:13:33 PM 41.7703 -87.7828 265° West 158 182 2,100  Level Chicago Center
Thu 02:13:54 PM 41.7667 -87.8167 262° West 195 224 3,100 2,483 Climbing Chicago TRACON
Thu 02:14:00 PM 41.7769 -88.8414 231° Southwest  Level FlightAware Approximate
Thu 02:15:00 PM 41.7316 -88.9153 231° Southwest  Level FlightAware Approximate
Thu 02:15:00 PM 41.7333 -87.9000 242° Southwest 257 296 5,700  Level Chicago TRACON
Thu 02:15:37 PM 41.7414 -87.9514 282° West 254 292 7,600 3,455 Climbing Chicago Center
Thu 02:16:00 PM 41.7296 -89.0109 270° West  Level Estimated
Thu 02:16:39 PM 41.7414 -88.0519 270° West 274 315 11,400  Level Chicago Center
Thu 02:17:00 PM 41.7100 -89.1028 254° West  Level FlightAware Approximate
Thu 02:17:41 PM 41.7786 -88.1669 293° West 292 336 12,000  Level Chicago Center
Thu 02:18:00 PM 41.7082 -89.1984 265° West  Level Estimated
Thu 02:18:43 PM 41.7822 -88.2678 273° West 279 321 12,100  Level Chicago Center
Thu 02:19:45 PM 41.7808 -88.3694 269° West 276 318 15,000 2,855 Climbing Chicago Center
Thu 02:20:47 PM 41.7803 -88.4781 270° West 290 334 18,000 2,274 Climbing Chicago Center
Thu 02:21:49 PM 41.7717 -88.5939 264° West 313 360 19,700 2,032 Climbing Chicago Center
Thu 02:22:51 PM 41.7481 -88.7547 259° West 365 420 22,200 2,371 Climbing Chicago Center
Thu 02:23:53 PM 41.7294 -88.8947 260° West 380 437 24,600 2,323 Climbing Chicago Center
Thu 02:24:55 PM 41.7119 -89.0372 261° West 389 448 27,000 2,323 Climbing Chicago Center
Thu 02:25:57 PM 41.6936 -89.1806 260° West 393 452 29,400 2,274 Climbing Chicago Center
Thu 02:26:59 PM 41.6947 -89.3236 271° West 387 445 31,700 1,258 Climbing Chicago Center
Thu 02:28:01 PM 41.6919 -89.4975 269° West 390 449 32,000 145 Climbing Chicago Center
Thu 02:29:03 PM 41.6886 -89.6433 268° West 385 443 32,000  Level Chicago Center
Thu 02:30:06 PM 41.6864 -89.7856 269° West 383 441 32,000  Level Chicago Center
Thu 02:31:08 PM 41.6825 -89.9286 268° West 384 442 32,000  Level Chicago Center
Thu 02:32:10 PM 41.6800 -90.0711 269° West 384 442 32,000  Level Chicago Center
Thu 02:33:12 PM 41.6767 -90.2156 268° West 390 449 32,000  Level Chicago Center
Thu 02:34:14 PM 41.6708 -90.3958 268° West 406 467 32,000  Level Chicago Center
Thu 02:35:16 PM 41.6664 -90.5417 268° West 396 456 32,000  Level Chicago Center
Thu 02:36:18 PM 41.6619 -90.6917 268° West 396 456 32,000  Level Chicago Center
Thu 02:37:20 PM 41.6569 -90.8394 267° West 400 460 32,000  Level Chicago Center
Thu 02:38:22 PM 41.6533 -90.9850 268° West 396 456 32,000  Level Chicago Center
Thu 02:39:24 PM 41.6481 -91.1331 267° West 400 460 32,000  Level Chicago Center
Thu 02:40:26 PM 41.6419 -91.3072 267° West 395 455 32,000 -144 Level Chicago Center
Thu 02:41:29 PM 41.6364 -91.4531 267° West 395 455 31,700 -624 Descending Chicago Center
Thu 02:42:31 PM 41.6314 -91.5981 267° West 394 453 30,700 -1,016 Descending Chicago Center
Thu 02:43:33 PM 41.6264 -91.7389 267° West 388 447 29,600 -1,016 Descending Chicago Center
Thu 02:44:35 PM 41.6200 -91.8761 266° West 379 436 28,600 -1,452 Descending Chicago Center
Thu 02:45:37 PM 41.6139 -92.0378 267° West 371 427 26,600 -1,839 Descending Chicago Center
Thu 02:46:39 PM 41.6081 -92.1719 267° West 365 420 24,800 -1,790 Descending Chicago Center
Thu 02:47:41 PM 41.6028 -92.3006 267° West 353 406 22,900 -1,790 Descending Chicago Center
Thu 02:48:43 PM 41.5961 -92.4250 266° West 341 392 21,100 -1,742 Descending Chicago Center
Thu 02:49:45 PM 41.5908 -92.5472 267° West 334 384 19,300 -1,855 Descending Chicago Center
Thu 02:50:33 PM 41.5858 -92.6583 267° West 330 380 17,700 -1,909 Descending Minneapolis Center
Thu 02:51:35 PM 41.5803 -92.7883 267° West 327 376 15,800 -1,742 Descending Minneapolis Center
Thu 02:52:37 PM 41.5739 -92.9075 266° West 325 374 14,100 -1,742 Descending Minneapolis Center
Thu 02:53:39 PM 41.5678 -93.0361 266° West 323 372 12,200 -1,742 Descending Minneapolis Center
Thu 02:54:41 PM 41.5494 -93.1500 258° West 316 364 10,500 -1,452 Descending Minneapolis Center
Thu 02:55:43 PM 41.5214 -93.2608 251° West 294 338 9,200 -1,210 Descending Minneapolis Center
Thu 02:56:45 PM 41.5025 -93.3369 252° West 285 328 8,000 -1,536 Descending Minneapolis Center
Thu 02:57:48 PM 41.4697 -93.4661 251° West 280 322 6,000 -1,440 Descending Minneapolis Center
Thu 02:58:50 PM 41.4447 -93.5608 251° West 272 313 5,000 -836 Descending Minneapolis Center
Thu 02:59:50 PM 41.4311 -93.6353 256° West 235 270 4,300 -850 Descending Minneapolis Center
Thu 03:00:50 PM 41.4081 -93.7150 249° West 232 267 3,300 -793 Descending Minneapolis Center
Thu 03:01:51 PM 41.4353 -93.7597 309° West 187 215 2,700 -422 Descending Minneapolis Center
Thu 03:02:58 PM 41.4797 -93.7519 North 165 190 2,400 -512 Descending Minneapolis Center
Thu 03:04:00 PM 41.5039 -93.7125 51° Northeast 140 161 1,600 -726 Descending Minneapolis Center
Thu 03:05:02 PM 41.5258 -93.6722 54° Northeast 143 165 900 -677 Descending Minneapolis Center

Login

Don't have an account? Register now (free) for customized features, flight alerts, and more!